createdAt,value
2022-10-10T00:01:28.886Z,2.75
2022-10-10T00:03:57.113Z,2.30
2022-10-10T00:06:28.144Z,2.40
2022-10-10T00:08:59.658Z,2.63
2022-10-10T00:11:28.606Z,2.40
2022-10-10T00:13:56.240Z,2.55
2022-10-10T00:16:24.511Z,2.40
2022-10-10T00:18:52.314Z,2.45
2022-10-10T00:21:20.060Z,2.10
2022-10-10T00:23:47.725Z,2.40
2022-10-10T00:26:18.901Z,2.50
2022-10-10T00:28:48.072Z,2.40
2022-10-10T00:31:16.029Z,2.22
2022-10-10T00:33:43.656Z,3.10
2022-10-10T00:36:11.636Z,2.40
2022-10-10T00:38:39.179Z,2.35
2022-10-10T00:41:06.818Z,2.45
2022-10-10T00:43:35.219Z,2.30
2022-10-10T00:46:04.221Z,2.50
2022-10-10T00:48:34.247Z,2.45
2022-10-10T00:51:06.266Z,2.47
2022-10-10T00:53:37.949Z,2.63
2022-10-10T00:56:06.916Z,2.67
2022-10-10T00:58:35.802Z,2.40
2022-10-10T01:01:04.840Z,2.35
2022-10-10T01:03:32.394Z,2.38
2022-10-10T01:06:00.449Z,2.60
2022-10-10T01:08:28.705Z,2.40
2022-10-10T01:11:10.764Z,2.55
2022-10-10T01:13:48.995Z,2.20
2022-10-10T01:16:27.781Z,2.63
2022-10-10T01:19:04.058Z,2.40
2022-10-10T01:21:38.857Z,2.88
2022-10-10T01:24:31.845Z,2.17
2022-10-10T01:27:30.994Z,2.40
2022-10-10T01:30:03.681Z,2.45
2022-10-10T01:35:15.810Z,2.42
2022-10-10T01:37:49.885Z,2.90
2022-10-10T01:40:25.610Z,2.70
2022-10-10T01:42:56.565Z,2.30
2022-10-10T01:45:25.970Z,2.78
2022-10-10T01:47:56.849Z,2.60
2022-10-10T01:50:27.429Z,2.55
2022-10-10T01:53:06.224Z,2.70
2022-10-10T01:55:48.938Z,2.40
2022-10-10T01:58:37.702Z,2.58
2022-10-10T02:01:17.755Z,2.65
2022-10-10T02:03:48.671Z,2.50
2022-10-10T02:06:22.609Z,2.45
2022-10-10T02:08:52.767Z,2.47
2022-10-10T02:11:20.532Z,2.50
2022-10-10T02:13:51.031Z,2.40
2022-10-10T02:16:25.145Z,2.30
2022-10-10T02:18:54.749Z,2.35
2022-10-10T02:21:24.068Z,2.45
2022-10-10T02:23:55.001Z,2.30
2022-10-10T02:26:26.115Z,2.33
2022-10-10T02:28:58.622Z,2.60
2022-10-10T02:31:33.414Z,2.65
2022-10-10T02:34:07.466Z,2.35
2022-10-10T02:36:36.021Z,2.35
2022-10-10T02:39:04.477Z,2.35
2022-10-10T02:41:34.221Z,2.50
2022-10-10T02:44:02.163Z,2.10
2022-10-10T02:46:31.129Z,2.10
2022-10-10T02:48:59.449Z,2.00
2022-10-10T02:51:30.292Z,2.15
2022-10-10T02:53:58.094Z,2.20
2022-10-10T02:56:25.576Z,2.13
2022-10-10T02:58:53.222Z,2.40
2022-10-10T03:01:20.884Z,2.45
2022-10-10T03:03:49.916Z,2.40
2022-10-10T03:06:17.659Z,2.40
2022-10-10T03:08:45.451Z,2.58
2022-10-10T03:11:12.997Z,2.50
2022-10-10T03:13:40.633Z,2.38
2022-10-10T03:16:08.202Z,2.50
2022-10-10T03:18:35.779Z,2.50
2022-10-10T03:21:05.158Z,2.40
2022-10-10T03:23:34.378Z,2.47
2022-10-10T03:26:02.288Z,2.70
2022-10-10T03:28:29.900Z,2.58
2022-10-10T03:30:57.655Z,2.38
2022-10-10T03:33:25.262Z,2.55
2022-10-10T03:35:52.877Z,2.42
2022-10-10T03:38:21.775Z,2.10
2022-10-10T03:40:49.571Z,2.30
2022-10-10T03:43:17.350Z,2.40
2022-10-10T03:45:47.473Z,2.38
2022-10-10T03:48:15.539Z,2.20
2022-10-10T03:50:43.187Z,2.40
2022-10-10T03:53:10.915Z,2.50
2022-10-10T03:55:41.729Z,2.60
2022-10-10T03:58:09.346Z,2.60
2022-10-10T04:00:37.099Z,2.67
2022-10-10T04:03:06.397Z,2.63
2022-10-10T04:05:35.309Z,2.45
2022-10-10T04:08:03.063Z,2.70
2022-10-10T04:10:30.627Z,2.60
2022-10-10T04:12:59.578Z,2.60
2022-10-10T04:15:27.803Z,2.50
2022-10-10T04:17:55.471Z,2.35
2022-10-10T04:20:23.047Z,2.60
2022-10-10T04:22:50.941Z,2.47
2022-10-10T04:25:18.907Z,2.50
2022-10-10T04:27:46.446Z,2.50
2022-10-10T04:30:15.726Z,2.60
2022-10-10T04:32:43.285Z,2.47
2022-10-10T04:35:11.773Z,2.50
2022-10-10T04:37:39.339Z,2.20
2022-10-10T04:40:07.699Z,2.80
2022-10-10T04:42:35.300Z,2.20
2022-10-10T04:45:02.819Z,2.63
2022-10-10T04:47:31.713Z,2.30
2022-10-10T04:49:59.316Z,2.58
2022-10-10T04:52:26.934Z,2.58
2022-10-10T04:54:54.504Z,2.50
2022-10-10T04:57:22.079Z,2.65
2022-10-10T04:59:49.618Z,2.67
2022-10-10T05:02:17.209Z,2.40
2022-10-10T05:04:46.267Z,2.63
2022-10-10T05:07:13.850Z,2.60
2022-10-10T05:09:41.498Z,3.03
2022-10-10T05:12:09.045Z,3.00
2022-10-10T05:14:36.686Z,2.72
2022-10-10T05:17:04.570Z,2.65
2022-10-10T05:19:32.122Z,2.60
2022-10-10T05:22:01.372Z,2.70
2022-10-10T05:24:29.158Z,2.70
2022-10-10T05:26:56.715Z,2.53
2022-10-10T05:29:24.348Z,2.65
2022-10-10T05:31:52.000Z,2.90
2022-10-10T05:34:19.489Z,2.90
2022-10-10T05:36:47.131Z,2.70
2022-10-10T05:39:16.020Z,2.67
2022-10-10T05:41:43.534Z,2.80
2022-10-10T05:44:11.193Z,3.22
2022-10-10T05:46:38.785Z,2.90
2022-10-10T05:49:06.365Z,2.78
2022-10-10T05:51:33.919Z,3.30
2022-10-10T05:54:01.513Z,2.90
2022-10-10T05:56:30.481Z,3.50
2022-10-10T05:58:58.009Z,4.00
2022-10-10T06:01:25.550Z,4.07
2022-10-10T06:03:55.880Z,3.75
2022-10-10T06:06:23.940Z,3.85
2022-10-10T06:08:51.919Z,3.63
2022-10-10T06:11:20.621Z,3.65
2022-10-10T06:13:53.969Z,4.95
2022-10-10T06:16:21.895Z,7.75
2022-10-10T06:18:49.636Z,8.43
2022-10-10T06:21:18.031Z,8.85
2022-10-10T06:23:45.994Z,9.38
2022-10-10T06:26:13.673Z,9.02
2022-10-10T06:28:41.234Z,8.65
2022-10-10T06:31:15.686Z,7.50
2022-10-10T06:33:45.372Z,6.80
2022-10-10T06:36:17.375Z,6.32
2022-10-10T06:41:13.886Z,5.55
2022-10-10T06:43:42.254Z,5.80
2022-10-10T06:46:11.702Z,5.50
2022-10-10T06:48:39.299Z,5.32
2022-10-10T06:51:08.851Z,4.50
2022-10-10T06:53:36.713Z,3.90
2022-10-10T06:56:05.017Z,3.88
2022-10-10T06:58:34.247Z,4.00
2022-10-10T07:01:05.248Z,4.13
2022-10-10T07:03:34.226Z,4.15
2022-10-10T07:06:02.975Z,3.95
2022-10-10T07:08:31.295Z,3.70
2022-10-10T07:10:58.907Z,3.67
2022-10-10T07:13:26.709Z,3.78
2022-10-10T07:15:54.340Z,3.40
2022-10-10T07:18:22.345Z,4.15
2022-10-10T07:20:51.290Z,3.83
2022-10-10T07:23:18.858Z,3.90
2022-10-10T07:25:46.401Z,3.97
2022-10-10T07:28:14.025Z,3.60
2022-10-10T07:30:43.583Z,3.80
2022-10-10T07:33:11.201Z,4.32
2022-10-10T07:35:38.899Z,3.90
2022-10-10T07:38:08.255Z,4.70
2022-10-10T07:40:35.994Z,5.38
2022-10-10T07:43:03.555Z,5.75
2022-10-10T07:45:31.103Z,5.43
2022-10-10T07:47:58.687Z,5.93
2022-10-10T07:50:26.225Z,5.40
2022-10-10T07:52:53.792Z,5.28
2022-10-10T07:55:22.651Z,5.65
2022-10-10T07:57:53.451Z,5.75
2022-10-10T08:00:21.330Z,5.82
2022-10-10T08:02:48.987Z,5.97
2022-10-10T08:05:16.580Z,6.30
2022-10-10T08:07:44.131Z,5.88
2022-10-10T08:10:12.188Z,4.88
2022-10-10T08:12:41.298Z,5.03
2022-10-10T08:17:43.118Z,5.70
2022-10-10T08:20:11.250Z,7.30
2022-10-10T08:22:38.993Z,6.20
2022-10-10T08:25:07.678Z,6.70
2022-10-10T08:27:35.249Z,6.50
2022-10-10T08:30:05.282Z,6.10
2022-10-10T08:32:32.898Z,6.35
2022-10-10T08:35:00.510Z,5.88
2022-10-10T08:37:31.843Z,5.78
2022-10-10T08:40:02.926Z,5.75
2022-10-10T08:42:34.601Z,5.07
2022-10-10T08:45:10.487Z,5.28
2022-10-10T08:47:44.738Z,5.40
2022-10-10T08:50:17.560Z,4.70
2022-10-10T08:52:52.073Z,4.13
2022-10-10T08:55:22.819Z,4.40
2022-10-10T08:57:52.889Z,4.60
2022-10-10T09:00:24.827Z,4.82
2022-10-10T09:05:32.770Z,4.40
2022-10-10T09:08:12.669Z,4.57
2022-10-10T09:10:47.915Z,5.05
2022-10-10T09:13:25.709Z,3.78
2022-10-10T09:15:57.882Z,3.67
2022-10-10T09:18:42.262Z,4.40
2022-10-10T09:21:16.345Z,3.65
2022-10-10T09:23:51.687Z,3.90
2022-10-10T09:26:24.076Z,4.13
2022-10-10T09:28:56.834Z,3.65
2022-10-10T09:31:34.046Z,4.00
2022-10-10T09:34:06.417Z,4.03
2022-10-10T09:36:37.116Z,3.58
2022-10-10T09:39:07.801Z,3.33
2022-10-10T09:41:40.276Z,3.38
2022-10-10T09:44:12.578Z,3.00
2022-10-10T09:46:41.982Z,2.90
2022-10-10T09:49:15.349Z,3.20
2022-10-10T09:51:43.521Z,2.85
2022-10-10T09:54:12.544Z,2.53
2022-10-10T09:56:45.436Z,3.20
2022-10-10T09:59:37.744Z,2.47
2022-10-10T10:02:15.088Z,2.88
2022-10-10T10:04:42.885Z,2.70
2022-10-10T10:07:21.650Z,2.35
2022-10-10T10:09:51.602Z,2.78
2022-10-10T10:12:23.510Z,2.80
2022-10-10T10:14:54.173Z,2.70
2022-10-10T10:17:24.711Z,2.75
2022-10-10T10:19:52.577Z,2.47
2022-10-10T10:22:31.088Z,2.50
2022-10-10T10:24:59.019Z,2.80
2022-10-10T10:27:29.122Z,2.67
2022-10-10T10:29:59.518Z,2.38
2022-10-10T10:32:46.146Z,2.92
2022-10-10T10:35:24.110Z,2.60
2022-10-10T10:38:17.528Z,2.70
2022-10-10T10:40:55.378Z,2.65
2022-10-10T10:43:54.934Z,3.38
2022-10-10T10:46:31.282Z,2.97
2022-10-10T10:49:03.880Z,2.88
2022-10-10T10:51:43.872Z,2.85
2022-10-10T10:54:27.510Z,2.40
2022-10-10T10:57:06.601Z,2.88
2022-10-10T11:00:20.341Z,2.53
2022-10-10T11:02:56.076Z,2.63
2022-10-10T11:05:41.979Z,2.78
2022-10-10T11:08:42.963Z,2.50
2022-10-10T11:11:42.316Z,2.50
2022-10-10T11:14:21.141Z,3.25
2022-10-10T11:16:53.688Z,2.33
2022-10-10T11:19:29.019Z,2.38
2022-10-10T11:22:04.152Z,2.60
2022-10-10T11:24:42.121Z,2.33
2022-10-10T11:27:18.816Z,2.30
2022-10-10T11:29:56.223Z,2.40
2022-10-10T11:32:29.132Z,2.70
2022-10-10T11:35:08.494Z,2.70
2022-10-10T11:37:46.187Z,2.40
2022-10-10T11:40:28.003Z,2.70
2022-10-10T11:43:00.676Z,2.40
2022-10-10T11:45:32.002Z,2.17
2022-10-10T11:48:11.519Z,2.42
2022-10-10T11:50:42.965Z,2.75
2022-10-10T11:53:20.379Z,2.35
2022-10-10T11:55:55.537Z,2.53
2022-10-10T11:58:28.951Z,2.15
2022-10-10T12:01:00.443Z,2.30
2022-10-10T12:03:28.092Z,2.30
2022-10-10T12:06:00.996Z,2.20
2022-10-10T12:08:37.699Z,2.58
2022-10-10T12:11:16.344Z,2.40
2022-10-10T12:13:47.111Z,2.10
2022-10-10T12:16:18.173Z,1.90
2022-10-10T12:18:48.043Z,2.23
2022-10-10T12:21:17.799Z,2.00
2022-10-10T12:23:50.209Z,1.80
2022-10-10T12:26:21.138Z,2.10
2022-10-10T12:29:03.990Z,2.05
2022-10-10T12:31:37.525Z,2.40
2022-10-10T12:34:16.962Z,2.10
2022-10-10T12:37:12.906Z,1.80
2022-10-10T12:40:03.680Z,2.22
2022-10-10T12:42:33.826Z,2.38
2022-10-10T12:45:01.927Z,1.95
2022-10-10T12:48:03.422Z,1.80
2022-10-10T12:50:26.726Z,1.92
2022-10-10T12:52:57.513Z,2.38
2022-10-10T12:55:29.966Z,1.90
2022-10-10T12:58:01.906Z,2.22
2022-10-10T13:03:11.071Z,2.00
2022-10-10T13:05:41.872Z,1.90
2022-10-10T13:08:14.586Z,1.90
2022-10-10T13:10:44.135Z,2.42
2022-10-10T13:13:19.406Z,2.00
2022-10-10T13:15:53.542Z,2.10
2022-10-10T13:18:34.409Z,2.08
2022-10-10T13:21:03.203Z,2.25
2022-10-10T13:23:31.398Z,2.25
2022-10-10T13:26:00.762Z,2.47
2022-10-10T13:28:29.283Z,2.30
2022-10-10T13:30:57.217Z,2.17
2022-10-10T13:33:32.279Z,2.35
2022-10-10T13:36:07.740Z,2.17
2022-10-10T13:38:36.171Z,2.55
2022-10-10T13:41:05.954Z,2.33
2022-10-10T13:43:34.311Z,2.60
2022-10-10T13:46:04.333Z,2.30
2022-10-10T13:48:41.437Z,2.60
2022-10-10T13:51:11.201Z,2.97
2022-10-10T13:53:48.225Z,2.25
2022-10-10T13:56:21.517Z,2.30
2022-10-10T13:58:51.762Z,2.50
2022-10-10T14:01:35.623Z,2.40
2022-10-10T14:04:08.708Z,2.28
2022-10-10T14:06:36.765Z,2.50
2022-10-10T14:09:10.217Z,2.63
2022-10-10T14:11:41.692Z,2.72
2022-10-10T14:14:15.929Z,2.58
2022-10-10T14:16:44.101Z,2.72
2022-10-10T14:19:18.838Z,2.90
2022-10-10T14:21:46.660Z,3.10
2022-10-10T14:24:16.128Z,2.50
2022-10-10T14:26:45.238Z,2.35
2022-10-10T14:29:15.538Z,2.40
2022-10-10T14:31:44.005Z,2.08
2022-10-10T14:34:12.829Z,2.40
2022-10-10T14:36:45.438Z,2.20
2022-10-10T14:39:14.761Z,2.28
2022-10-10T14:41:42.507Z,2.42
2022-10-10T14:44:11.815Z,2.10
2022-10-10T14:46:41.132Z,2.38
2022-10-10T14:49:17.243Z,2.22
2022-10-10T14:51:44.879Z,2.10
2022-10-10T14:54:14.065Z,2.50
2022-10-10T14:57:07.314Z,2.03
2022-10-10T14:59:47.600Z,2.20
2022-10-10T15:02:21.600Z,2.15
2022-10-10T15:07:17.463Z,2.75
2022-10-10T15:12:34.221Z,2.30
2022-10-10T15:15:03.116Z,2.40
2022-10-10T15:17:33.592Z,2.10
2022-10-10T15:20:01.276Z,2.22
2022-10-10T15:22:30.322Z,2.20
2022-10-10T15:24:58.146Z,2.50
2022-10-10T15:27:27.858Z,2.33
2022-10-10T15:29:55.827Z,2.67
2022-10-10T15:32:24.961Z,2.30
2022-10-10T15:34:53.466Z,2.95
2022-10-10T15:37:21.100Z,2.70
2022-10-10T15:39:48.666Z,2.33
2022-10-10T15:42:22.325Z,2.30
2022-10-10T15:44:50.819Z,2.90
2022-10-10T15:47:21.312Z,3.22
2022-10-10T15:49:51.057Z,3.42
2022-10-10T15:52:19.386Z,5.25
2022-10-10T15:54:49.409Z,3.70
2022-10-10T15:57:18.939Z,3.17
2022-10-10T15:59:47.249Z,3.00
2022-10-10T16:02:15.080Z,2.80
2022-10-10T16:04:43.108Z,3.08
2022-10-10T16:07:26.844Z,3.20
2022-10-10T16:09:56.170Z,3.22
2022-10-10T16:12:23.728Z,3.20
2022-10-10T16:14:51.484Z,3.70
2022-10-10T16:17:23.109Z,3.95
2022-10-10T16:19:51.173Z,3.38
2022-10-10T16:22:21.210Z,3.65
2022-10-10T16:25:21.318Z,3.92
2022-10-10T16:27:37.330Z,3.70
2022-10-10T16:30:05.866Z,3.50
2022-10-10T16:32:36.918Z,3.63
2022-10-10T16:35:09.574Z,3.50
2022-10-10T16:37:38.926Z,3.65
2022-10-10T16:40:08.355Z,3.67
2022-10-10T16:42:36.100Z,3.95
2022-10-10T16:45:04.100Z,3.80
2022-10-10T16:47:31.655Z,3.90
2022-10-10T16:49:59.242Z,4.32
2022-10-10T16:52:26.942Z,4.72
2022-10-10T16:54:55.911Z,5.35
2022-10-10T16:57:23.565Z,4.40
2022-10-10T16:59:51.111Z,4.18
2022-10-10T17:02:18.879Z,4.00
2022-10-10T17:04:46.401Z,3.85
2022-10-10T17:07:14.231Z,3.78
2022-10-10T17:09:41.815Z,3.85
2022-10-10T17:12:10.786Z,4.50
2022-10-10T17:14:38.365Z,3.08
2022-10-10T17:17:12.233Z,2.20
2022-10-10T17:19:40.469Z,1.20
2022-10-10T17:22:08.236Z,1.38
2022-10-10T17:24:36.501Z,1.10
2022-10-10T17:27:04.213Z,1.30
2022-10-10T17:29:33.640Z,1.30
2022-10-10T17:32:05.995Z,1.25
2022-10-10T17:34:34.799Z,1.13
2022-10-10T17:37:02.797Z,1.33
2022-10-10T17:39:30.508Z,1.52
2022-10-10T17:41:58.096Z,1.60
2022-10-10T17:44:25.809Z,1.30
2022-10-10T17:46:54.756Z,1.70
2022-10-10T17:49:22.337Z,1.42
2022-10-10T17:51:49.960Z,1.65
2022-10-10T17:54:18.257Z,1.83
2022-10-10T17:56:46.069Z,1.50
2022-10-10T17:59:14.073Z,1.58
2022-10-10T18:01:41.758Z,1.50
2022-10-10T18:04:11.943Z,1.40
2022-10-10T18:06:39.752Z,2.15
2022-10-10T18:09:07.581Z,1.60
2022-10-10T18:11:35.356Z,1.50
2022-10-10T18:14:02.937Z,2.22
2022-10-10T18:16:34.058Z,2.10
2022-10-10T18:19:02.468Z,2.45
2022-10-10T18:21:31.410Z,1.67
2022-10-10T18:23:59.164Z,1.73
2022-10-10T18:26:29.329Z,2.05
2022-10-10T18:28:57.444Z,1.67
2022-10-10T18:31:27.467Z,1.80
2022-10-10T18:33:55.686Z,2.10
2022-10-10T18:36:26.433Z,2.22
2022-10-10T18:38:55.619Z,2.60
2022-10-10T18:41:25.107Z,2.40
2022-10-10T18:43:52.953Z,2.20
2022-10-10T18:46:22.096Z,2.22
2022-10-10T18:48:53.762Z,2.50
2022-10-10T18:51:24.130Z,2.92
2022-10-10T18:53:53.333Z,2.38
2022-10-10T18:56:24.507Z,2.67
2022-10-10T18:58:54.566Z,2.45
2022-10-10T19:01:25.161Z,2.40
2022-10-10T19:03:54.121Z,2.60
2022-10-10T19:06:22.637Z,2.85
2022-10-10T19:08:52.158Z,2.25
2022-10-10T19:11:22.915Z,2.00
2022-10-10T19:13:51.023Z,2.25
2022-10-10T19:16:19.048Z,2.00
2022-10-10T19:18:47.064Z,3.03
2022-10-10T19:21:16.210Z,2.30
2022-10-10T19:23:44.994Z,2.28
2022-10-10T19:26:14.937Z,2.60
2022-10-10T19:28:44.747Z,2.55
2022-10-10T19:31:14.759Z,1.88
2022-10-10T19:33:44.013Z,2.22
2022-10-10T19:36:13.073Z,1.92
2022-10-10T19:38:42.380Z,2.60
2022-10-10T19:41:12.680Z,2.53
2022-10-10T19:43:40.657Z,2.38
2022-10-10T19:46:11.791Z,2.70
2022-10-10T19:48:39.432Z,2.63
2022-10-10T19:51:09.676Z,2.38
2022-10-10T19:53:38.133Z,2.72
2022-10-10T19:56:08.009Z,3.20
2022-10-10T19:58:36.913Z,3.05
2022-10-10T20:01:09.431Z,2.95
2022-10-10T20:03:37.179Z,2.70
2022-10-10T20:06:06.166Z,2.85
2022-10-10T20:08:34.305Z,2.70
2022-10-10T20:11:02.173Z,2.30
2022-10-10T20:13:29.794Z,2.30
2022-10-10T20:16:01.633Z,2.47
2022-10-10T20:18:31.274Z,2.63
2022-10-10T20:20:58.906Z,3.22
2022-10-10T20:23:27.542Z,3.53
2022-10-10T20:25:55.174Z,4.53
2022-10-10T20:28:23.156Z,4.63
2022-10-10T20:30:52.937Z,3.95
2022-10-10T20:33:21.910Z,4.07
2022-10-10T20:36:02.262Z,4.45
2022-10-10T20:38:30.007Z,5.28
2022-10-10T20:40:57.774Z,4.68
2022-10-10T20:43:25.344Z,4.18
2022-10-10T20:45:52.947Z,3.50
2022-10-10T20:48:20.505Z,3.08
2022-10-10T20:50:48.075Z,2.78
2022-10-10T20:53:16.965Z,2.42
2022-10-10T20:55:44.633Z,2.15
2022-10-10T20:58:12.217Z,2.05
2022-10-10T21:00:43.018Z,2.08
2022-10-10T21:03:10.627Z,1.80
2022-10-10T21:05:38.488Z,2.30
2022-10-10T21:08:06.540Z,3.00
2022-10-10T21:10:39.056Z,2.67
2022-10-10T21:13:07.643Z,2.38
2022-10-10T21:15:35.233Z,2.15
2022-10-10T21:18:02.838Z,2.10
2022-10-10T21:20:30.371Z,2.00
2022-10-10T21:22:57.934Z,1.77
2022-10-10T21:25:25.566Z,1.80
2022-10-10T21:27:54.452Z,1.92
2022-10-10T21:30:24.430Z,2.22
2022-10-10T21:32:51.966Z,2.25
2022-10-10T21:35:19.567Z,2.42
2022-10-10T21:37:47.320Z,2.00
2022-10-10T21:40:15.111Z,2.45
2022-10-10T21:42:42.802Z,2.00
2022-10-10T21:45:12.257Z,2.10
2022-10-10T21:47:42.473Z,2.28
2022-10-10T21:50:11.090Z,2.38
2022-10-10T21:52:38.619Z,2.00
2022-10-10T21:55:07.019Z,2.22
2022-10-10T21:57:34.773Z,2.10
2022-10-10T22:00:02.357Z,2.72
2022-10-10T22:02:34.220Z,2.53
2022-10-10T22:05:02.467Z,2.33
2022-10-10T22:07:30.858Z,2.17
2022-10-10T22:09:58.759Z,2.55
2022-10-10T22:12:26.324Z,2.60
2022-10-10T22:14:53.845Z,2.30
2022-10-10T22:17:21.492Z,2.40
2022-10-10T22:19:50.441Z,2.33
2022-10-10T22:22:18.037Z,2.50
2022-10-10T22:24:45.891Z,2.50
2022-10-10T22:27:13.467Z,2.40
2022-10-10T22:29:40.997Z,2.40
2022-10-10T22:32:08.518Z,2.40
2022-10-10T22:34:36.142Z,2.00
2022-10-10T22:37:05.206Z,2.00
2022-10-10T22:39:33.010Z,2.47
2022-10-10T22:42:00.559Z,2.10
2022-10-10T22:44:28.271Z,2.10
2022-10-10T22:46:55.828Z,2.00
2022-10-10T22:49:23.462Z,1.80
2022-10-10T22:51:51.518Z,2.22
2022-10-10T22:54:20.526Z,1.90
2022-10-10T22:56:48.079Z,1.80
2022-10-10T22:59:15.711Z,2.40
2022-10-10T23:01:43.274Z,1.60
2022-10-10T23:04:13.271Z,1.60
2022-10-10T23:06:41.279Z,1.60
2022-10-10T23:09:09.414Z,1.83
2022-10-10T23:11:38.268Z,1.65
2022-10-10T23:14:06.565Z,2.15
2022-10-10T23:16:35.711Z,1.83
2022-10-10T23:21:33.760Z,2.10
2022-10-10T23:24:01.317Z,1.85
2022-10-10T23:26:29.988Z,1.50
2022-10-10T23:28:58.927Z,1.70
2022-10-10T23:31:26.588Z,1.95
2022-10-10T23:33:54.175Z,1.95
2022-10-10T23:36:21.963Z,1.73
2022-10-10T23:38:49.762Z,2.00
2022-10-10T23:41:17.434Z,1.98
2022-10-10T23:43:45.284Z,2.00
2022-10-10T23:46:15.405Z,1.75
2022-10-10T23:48:43.351Z,1.77
2022-10-10T23:51:11.214Z,2.10
2022-10-10T23:53:38.872Z,1.90
2022-10-10T23:56:06.984Z,2.00
2022-10-10T23:58:35.095Z,2.00
